M I D A S
Marine Information and Data Acquisition System
Tripno 1308 of the Zeeleeuw from 2007-05-22 11:38:09 to 2007-05-22 13:01:26
Back to CruiseResearch ActivitiesStationsMapUnderway DataData graphs

EquipmentUnitsComment
TimeDGPSUTC
LatitudeDGPSDM.mWGS84
LongitudeDGPSDM.mWGS84
HeadingGyrodeg 
SOGDGPSknotsSpeed over ground
COGDGPSdegCourse over ground
DepthEcho soundermeters200 kHz
Missing or incorrect values are displayed as -999
Navigation data collected by the RV Zeeleeuw from 2007-05-22 07:30:53 to 2007-05-22 13:35:04
                                                                                    Next 1000 lines
Time Latitude Longitude Heading SOG COG Depth
2007-05-22 07:31:03 51°13.6 2°56.097 112.1 0.3 281 8.9
2007-05-22 07:31:08 51°13.6 2°56.096 112 0.5 286 8.9
2007-05-22 07:31:13 51°13.601 2°56.095 111.9 0.7 286 8.9
2007-05-22 07:31:18 51°13.601 2°56.093 111.9 0.9 289 8.9
2007-05-22 07:31:23 51°13.602 2°56.09 112.2 1.2 291 8.9
2007-05-22 07:31:28 51°13.602 2°56.087 112.6 1.7 290 9
2007-05-22 07:31:33 51°13.604 2°56.083 113.2 2.2 292 9.3
2007-05-22 07:31:38 51°13.605 2°56.077 114.4 2.6 294 -999
2007-05-22 07:31:43 51°13.607 2°56.071 115.7 3 294 -999
2007-05-22 07:31:48 51°13.609 2°56.065 116.1 3.3 295 -999
2007-05-22 07:31:53 51°13.611 2°56.058 116.3 3.6 295 -999
2007-05-22 07:31:58 51°13.613 2°56.05 116.3 4 295 -999
2007-05-22 07:32:03 51°13.616 2°56.041 116.4 4.3 294 -999
2007-05-22 07:32:08 51°13.618 2°56.032 116.4 4.5 295 -999
2007-05-22 07:32:13 51°13.621 2°56.023 116.4 4.7 294 -999
2007-05-22 07:32:18 51°13.624 2°56.013 116.8 4.8 294 -999
2007-05-22 07:32:23 51°13.627 2°56.003 117.4 5 295 -999
2007-05-22 07:32:28 51°13.63 2°55.993 118.2 5.2 295 -999
2007-05-22 07:32:33 51°13.633 2°55.982 118.9 5.3 296 -999
2007-05-22 07:32:38 51°13.636 2°55.971 119.6 5.5 297 -999
2007-05-22 07:32:43 51°13.64 2°55.96 120.4 5.6 297 -999
2007-05-22 07:32:48 51°13.643 2°55.949 120.9 5.6 297 -999
2007-05-22 07:32:53 51°13.647 2°55.938 121.2 5.6 298 -999
2007-05-22 07:32:58 51°13.651 2°55.927 121.4 5.5 298 -999
2007-05-22 07:33:03 51°13.654 2°55.917 121.5 5.3 298 -999
2007-05-22 07:33:08 51°13.658 2°55.907 121.2 5.2 298 -999
2007-05-22 07:33:13 51°13.661 2°55.897 120.6 4.9 298 -999
2007-05-22 07:33:18 51°13.664 2°55.888 119.9 4.7 297 -999
2007-05-22 07:33:23 51°13.667 2°55.879 119 4.6 297 -999
2007-05-22 07:33:28 51°13.669 2°55.87 118.5 4.4 296 68.6
2007-05-22 07:33:33 51°13.672 2°55.862 118 4.3 296 11.2
2007-05-22 07:33:38 51°13.674 2°55.853 117.3 4.2 295 4.8
2007-05-22 07:33:43 51°13.677 2°55.845 116.7 4.1 295 -999
2007-05-22 07:33:48 51°13.679 2°55.837 115.7 4 293 -999
2007-05-22 07:33:53 51°13.681 2°55.829 114.2 3.8 292 4.7
2007-05-22 07:33:58 51°13.683 2°55.821 112.8 3.7 291 -999
2007-05-22 07:34:03 51°13.684 2°55.814 111.6 3.6 290 4.8
2007-05-22 07:34:08 51°13.686 2°55.807 110.1 3.5 290 11.3
2007-05-22 07:34:13 51°13.687 2°55.8 108.6 3.3 287 11.2
2007-05-22 07:34:18 51°13.689 2°55.793 107.2 3.2 287 11.4
2007-05-22 07:34:23 51°13.69 2°55.786 105.8 3.2 285 11.2
2007-05-22 07:34:28 51°13.691 2°55.779 104.5 3.1 285 -999
2007-05-22 07:34:33 51°13.692 2°55.773 102.9 3.1 283 4.8
2007-05-22 07:34:38 51°13.693 2°55.766 101.4 3 282 -999
2007-05-22 07:34:43 51°13.693 2°55.76 100 3 280 11.9
2007-05-22 07:34:48 51°13.694 2°55.754 98.7 2.9 280 11.7
2007-05-22 07:34:53 51°13.695 2°55.748 97.6 2.8 278 4.8
2007-05-22 07:34:58 51°13.695 2°55.742 96.5 2.7 276 4.8
2007-05-22 07:35:03 51°13.695 2°55.736 95.5 2.5 276 4.8
2007-05-22 07:35:08 51°13.695 2°55.731 94.6 2.5 274 4.9
2007-05-22 07:35:13 51°13.696 2°55.725 93.2 2.4 274 4.9
2007-05-22 07:35:18 51°13.696 2°55.721 91.9 2.3 273 -999
2007-05-22 07:35:23 51°13.696 2°55.716 91 1.9 271 -999
2007-05-22 07:35:28 51°13.696 2°55.713 89.4 1.7 270 -999
2007-05-22 07:35:33 51°13.696 2°55.71 86.7 1.4 268 -999
2007-05-22 07:35:38 51°13.696 2°55.708 84 0.9 274 -999
2007-05-22 07:35:43 51°13.696 2°55.707 80.7 0.3 294 -999
2007-05-22 07:35:48 51°13.697 2°55.707 75.9 0.4 17 -999
2007-05-22 07:35:53 51°13.697 2°55.708 70.8 0.6 47 4.9
2007-05-22 07:35:58 51°13.698 2°55.71 65.4 1 45 -999
2007-05-22 07:36:03 51°13.699 2°55.712 59.8 1.2 49 -999
2007-05-22 07:36:08 51°13.701 2°55.714 54.2 1.5 41 -999
2007-05-22 07:36:13 51°13.703 2°55.716 49.7 1.7 39 4.9
2007-05-22 07:36:18 51°13.705 2°55.719 43.9 1.9 33 4.7
2007-05-22 07:36:23 51°13.708 2°55.721 38.2 2.1 28 4.7
2007-05-22 07:36:28 51°13.711 2°55.723 32.4 2.3 22 -999
2007-05-22 07:36:33 51°13.714 2°55.724 26.6 2.5 16 -999
2007-05-22 07:36:38 51°13.718 2°55.725 20.7 2.4 11 -999
2007-05-22 07:36:43 51°13.721 2°55.726 14.3 2.5 6 -999
2007-05-22 07:36:48 51°13.724 2°55.726 9.8 2.4 3 -999
2007-05-22 07:36:53 51°13.727 2°55.726 5 2.4 359 -999
2007-05-22 07:36:58 51°13.731 2°55.725 1.4 2.4 355 -999
2007-05-22 07:37:03 51°13.734 2°55.725 358.2 2.6 351 -999
2007-05-22 07:37:08 51°13.738 2°55.723 355.6 3 348 -999
2007-05-22 07:37:13 51°13.743 2°55.721 353 3.3 343 11.8
2007-05-22 07:37:18 51°13.748 2°55.719 349.3 3.8 340 11.9
2007-05-22 07:37:23 51°13.754 2°55.715 344.2 4.5 335 12
2007-05-22 07:37:28 51°13.76 2°55.71 340.4 5.2 335 11.8
2007-05-22 07:37:33 51°13.767 2°55.704 338.1 5.9 332 11
2007-05-22 07:37:38 51°13.776 2°55.696 336.3 6.7 331 11.2
2007-05-22 07:37:43 51°13.785 2°55.688 335.4 7.5 330 11.1
2007-05-22 07:37:48 51°13.794 2°55.679 334.7 8.2 330 10.7
2007-05-22 07:37:53 51°13.805 2°55.67 334 8.7 330 10.8
2007-05-22 07:37:58 51°13.816 2°55.661 334.6 9.2 332 10.7
2007-05-22 07:38:03 51°13.828 2°55.65 335.5 9.6 331 10.6
2007-05-22 07:38:08 51°13.84 2°55.64 335.4 10 332 11.2
2007-05-22 07:38:13 51°13.852 2°55.629 335.2 10.2 334 11.1
2007-05-22 07:38:18 51°13.866 2°55.619 337 10.3 333 11.6
2007-05-22 07:38:23 51°13.878 2°55.609 337.7 10.2 333 11.3
2007-05-22 07:38:28 51°13.89 2°55.599 337.4 10.1 333 11.3
2007-05-22 07:38:33 51°13.903 2°55.589 336.7 10 332 11.3
2007-05-22 07:38:38 51°13.915 2°55.579 336.7 9.9 334 11.5
2007-05-22 07:38:43 51°13.927 2°55.569 338 9.8 334 11.8
2007-05-22 07:38:48 51°13.94 2°55.56 338.2 9.8 335 11.7
2007-05-22 07:38:53 51°13.952 2°55.551 338.9 9.7 335 11.8
2007-05-22 07:38:58 51°13.964 2°55.542 339.4 9.7 335 11.8
2007-05-22 07:39:03 51°13.976 2°55.533 339.5 9.6 335 11.7
2007-05-22 07:39:08 51°13.988 2°55.525 339.4 9.4 335 11.8
2007-05-22 07:39:13 51°13.999 2°55.516 339.5 9 335 -999
2007-05-22 07:39:18 51°14.01 2°55.508 339.5 8.6 335 11.8
2007-05-22 07:39:23 51°14.021 2°55.5 339.3 8.3 335 -999
2007-05-22 07:39:28 51°14.031 2°55.493 338.9 8 334 11.6
2007-05-22 07:39:33 51°14.04 2°55.486 338.9 7.7 335 11.8
2007-05-22 07:39:38 51°14.05 2°55.479 338.9 7.4 335 12.1
2007-05-22 07:39:43 51°14.059 2°55.472 338.9 7.2 336 -999
2007-05-22 07:39:48 51°14.068 2°55.466 339.4 7 336 -999
2007-05-22 07:39:53 51°14.076 2°55.46 340.3 6.9 337 -999
2007-05-22 07:39:58 51°14.085 2°55.454 340.9 6.7 338 -999
2007-05-22 07:40:03 51°14.093 2°55.449 341.6 6.6 339 12.1
2007-05-22 07:40:08 51°14.102 2°55.444 342.2 6.5 340 12.2
2007-05-22 07:40:13 51°14.11 2°55.439 342.9 6.4 340 -999
2007-05-22 07:40:18 51°14.118 2°55.434 343.3 6.4 340 12.3
2007-05-22 07:40:23 51°14.127 2°55.428 343.1 6.5 339 -999
2007-05-22 07:40:28 51°14.135 2°55.423 342.5 6.8 338 -999
2007-05-22 07:40:33 51°14.144 2°55.417 341.9 7.1 337 -999
2007-05-22 07:40:38 51°14.154 2°55.41 341.1 7.5 336 -999
2007-05-22 07:40:43 51°14.164 2°55.403 340.4 7.8 336 -999
2007-05-22 07:40:48 51°14.174 2°55.395 339.2 8.2 334 -999
2007-05-22 07:40:53 51°14.185 2°55.386 337 8.6 331 -999
2007-05-22 07:40:58 51°14.195 2°55.376 334.6 9 328 -999
2007-05-22 07:41:03 51°14.206 2°55.365 332.6 9.4 327 -999
2007-05-22 07:41:08 51°14.217 2°55.352 331.3 9.7 325 12
2007-05-22 07:41:13 51°14.228 2°55.339 330.1 10.1 324 11.9
2007-05-22 07:41:18 51°14.24 2°55.325 329.4 10.3 323 -999
2007-05-22 07:41:23 51°14.251 2°55.31 328 10.7 320 11.9
2007-05-22 07:41:28 51°14.262 2°55.294 325.2 10.9 317 11.6
2007-05-22 07:41:33 51°14.274 2°55.277 322.3 11.1 316 11.6
2007-05-22 07:41:38 51°14.284 2°55.259 320.8 11.2 315 11.7
2007-05-22 07:41:43 51°14.295 2°55.24 320.1 11.3 312 11.7
2007-05-22 07:41:48 51°14.305 2°55.22 317.1 11.4 308 11.7
2007-05-22 07:41:53 51°14.314 2°55.2 314.2 11.5 307 11.7
2007-05-22 07:41:58 51°14.324 2°55.179 312 11.6 305 11.6
2007-05-22 07:42:03 51°14.332 2°55.158 310.2 11.6 303 11.4
2007-05-22 07:42:08 51°14.341 2°55.135 308.5 11.7 302 11.4
2007-05-22 07:42:13 51°14.349 2°55.113 306.5 11.9 300 12
2007-05-22 07:42:18 51°14.357 2°55.089 305.4 12 299 11.6
2007-05-22 07:42:23 51°14.365 2°55.066 304 12 297 11.7
2007-05-22 07:42:28 51°14.372 2°55.042 302.5 12.1 296 11.5
2007-05-22 07:42:33 51°14.379 2°55.017 301.4 12.2 295 11.1
2007-05-22 07:42:38 51°14.386 2°54.993 300 12.2 294 11
2007-05-22 07:42:43 51°14.393 2°54.968 299.5 12.2 293 11.1
2007-05-22 07:42:48 51°14.399 2°54.942 299 12.3 291 11.2
2007-05-22 07:42:53 51°14.405 2°54.916 297.8 12.4 289 11.3
2007-05-22 07:42:58 51°14.41 2°54.89 295.7 12.5 287 11.4
2007-05-22 07:43:03 51°14.414 2°54.863 294 12.7 285 11.6
2007-05-22 07:43:08 51°14.418 2°54.835 292.2 12.8 284 11.6
2007-05-22 07:43:13 51°14.422 2°54.807 290.3 12.9 283 11.6
2007-05-22 07:43:18 51°14.426 2°54.779 288.6 13.1 282 11.5
2007-05-22 07:43:23 51°14.43 2°54.75 288.1 13.2 283 11.5
2007-05-22 07:43:28 51°14.433 2°54.721 288.2 13.3 281 11.7
2007-05-22 07:43:33 51°14.437 2°54.692 287.4 13.4 280 11.3
2007-05-22 07:43:38 51°14.439 2°54.662 286 13.6 278 11.6
2007-05-22 07:43:43 51°14.442 2°54.633 284.6 13.6 280 11.6
2007-05-22 07:43:48 51°14.445 2°54.603 284.3 13.6 278 11.6
2007-05-22 07:43:53 51°14.448 2°54.573 284.4 13.7 280 11.5
2007-05-22 07:43:58 51°14.452 2°54.543 284.3 13.7 280 11.5
2007-05-22 07:44:03 51°14.455 2°54.513 284.8 13.7 280 11.5
2007-05-22 07:44:08 51°14.458 2°54.483 285.2 13.7 279 11.5
2007-05-22 07:44:13 51°14.461 2°54.453 285.2 13.8 279 11.2
2007-05-22 07:44:18 51°14.464 2°54.423 284.1 13.7 278 11.2
2007-05-22 07:44:23 51°14.466 2°54.393 283.6 13.7 276 11.4
2007-05-22 07:44:28 51°14.468 2°54.363 282.6 13.6 276 11.7
2007-05-22 07:44:33 51°14.468 2°54.333 281.6 13.6 271 11.5
2007-05-22 07:44:38 51°14.467 2°54.302 278.1 13.6 267 11.7
2007-05-22 07:44:43 51°14.464 2°54.273 272.9 13.4 260 11.3
2007-05-22 07:44:48 51°14.459 2°54.245 267.1 13.3 255 10.6
2007-05-22 07:44:53 51°14.452 2°54.218 261.1 13.2 248 10.1
2007-05-22 07:44:58 51°14.444 2°54.192 254 13.3 245 9.8
2007-05-22 07:45:03 51°14.436 2°54.165 248.9 13.3 244 9.8
2007-05-22 07:45:08 51°14.427 2°54.139 247.6 13.4 241 9.8
2007-05-22 07:45:13 51°14.418 2°54.113 245.3 13.6 242 9.9
2007-05-22 07:45:18 51°14.409 2°54.087 244.5 13.4 239 9.9
2007-05-22 07:45:23 51°14.399 2°54.062 243 13.5 238 10
2007-05-22 07:45:28 51°14.389 2°54.036 241.3 13.6 238 10
2007-05-22 07:45:33 51°14.378 2°54.012 240.6 13.6 236 10
2007-05-22 07:45:38 51°14.368 2°53.986 238.9 13.7 237 9.9
2007-05-22 07:45:43 51°14.357 2°53.961 238.8 13.7 236 9.9
2007-05-22 07:45:48 51°14.346 2°53.936 238.8 13.7 236 9.9
2007-05-22 07:45:53 51°14.336 2°53.911 238.3 13.7 236 9.9
2007-05-22 07:45:58 51°14.325 2°53.886 238.3 13.7 236 9.9
2007-05-22 07:46:03 51°14.314 2°53.861 238.4 13.7 236 9.9
2007-05-22 07:46:08 51°14.303 2°53.836 238.6 13.8 235 9.8
2007-05-22 07:46:13 51°14.293 2°53.811 238 13.7 236 9.9
2007-05-22 07:46:18 51°14.282 2°53.786 238.6 13.7 236 9.9
2007-05-22 07:46:23 51°14.271 2°53.761 238.7 13.6 236 9.8
2007-05-22 07:46:28 51°14.261 2°53.736 238.7 13.7 236 9.8
2007-05-22 07:46:33 51°14.25 2°53.711 238.8 13.6 237 9.8
2007-05-22 07:46:38 51°14.239 2°53.686 239.3 13.7 235 9.9
2007-05-22 07:46:43 51°14.229 2°53.66 238.7 13.7 237 9.9
2007-05-22 07:46:48 51°14.219 2°53.636 239.4 13.6 235 9.9
2007-05-22 07:46:53 51°14.208 2°53.61 238.9 13.7 237 9.8
2007-05-22 07:46:58 51°14.197 2°53.585 238.7 13.6 235 9.9
2007-05-22 07:47:03 51°14.187 2°53.56 239.1 13.7 237 9.9
2007-05-22 07:47:08 51°14.177 2°53.535 238.9 13.6 236 9.9
2007-05-22 07:47:13 51°14.166 2°53.51 239.7 13.6 236 9.9
2007-05-22 07:47:18 51°14.155 2°53.485 238.5 13.6 236 9.9
2007-05-22 07:47:23 51°14.145 2°53.46 238.7 13.7 236 10
2007-05-22 07:47:28 51°14.134 2°53.435 238.4 13.6 236 10
2007-05-22 07:47:33 51°14.123 2°53.411 238.6 13.6 236 10.1
2007-05-22 07:47:38 51°14.113 2°53.385 238.8 13.7 236 10.1
2007-05-22 07:47:43 51°14.103 2°53.36 238.5 13.7 238 10.1
2007-05-22 07:47:48 51°14.092 2°53.335 239.9 13.6 237 10.1
2007-05-22 07:47:53 51°14.082 2°53.309 240 13.6 237 10.1
2007-05-22 07:47:58 51°14.071 2°53.284 240.5 13.7 236 10.1
2007-05-22 07:48:03 51°14.061 2°53.259 240 13.7 238 10.2
2007-05-22 07:48:08 51°14.051 2°53.233 240.6 13.7 236 10.2
2007-05-22 07:48:13 51°14.04 2°53.208 240.8 13.7 238 10.2
2007-05-22 07:48:18 51°14.03 2°53.183 240.8 13.8 236 10.3
2007-05-22 07:48:23 51°14.02 2°53.157 240.3 13.8 238 10.3
2007-05-22 07:48:28 51°14.009 2°53.131 241 13.8 238 10.2
2007-05-22 07:48:33 51°13.999 2°53.105 240.9 13.7 238 10.2
2007-05-22 07:48:38 51°13.989 2°53.079 241.4 13.7 238 10.2
2007-05-22 07:48:43 51°13.98 2°53.053 241.7 13.6 240 10.3
2007-05-22 07:48:48 51°13.969 2°53.028 242.7 13.7 237 10.4
2007-05-22 07:48:53 51°13.96 2°53.002 241.5 13.8 239 10.3
2007-05-22 07:48:58 51°13.95 2°52.976 241.6 13.7 238 10.4
2007-05-22 07:49:03 51°13.939 2°52.951 242 13.7 238 10.5
2007-05-22 07:49:08 51°13.929 2°52.925 241.3 13.8 238 10.4
2007-05-22 07:49:13 51°13.92 2°52.899 241.7 13.6 239 10.5
2007-05-22 07:49:18 51°13.909 2°52.874 242.4 13.6 237 10.5
2007-05-22 07:49:23 51°13.899 2°52.848 241 13.8 238 10.5
2007-05-22 07:49:28 51°13.889 2°52.822 241.2 13.7 238 10.5
2007-05-22 07:49:33 51°13.879 2°52.797 241.9 13.6 237 10.5
2007-05-22 07:49:38 51°13.869 2°52.771 241.4 13.7 238 10.5
2007-05-22 07:49:43 51°13.859 2°52.745 241 13.7 238 10.4
2007-05-22 07:49:48 51°13.848 2°52.72 241.6 13.7 237 10.4
2007-05-22 07:49:53 51°13.838 2°52.694 241 13.7 237 10.4
2007-05-22 07:49:58 51°13.828 2°52.669 240.5 13.7 237 10.4
2007-05-22 07:50:03 51°13.818 2°52.644 240.8 13.6 237 10.5
2007-05-22 07:50:08 51°13.807 2°52.619 240.7 13.7 236 10.5
2007-05-22 07:50:13 51°13.797 2°52.593 239.8 13.8 237 10.5
2007-05-22 07:50:18 51°13.786 2°52.568 240 13.7 236 10.4
2007-05-22 07:50:23 51°13.776 2°52.542 240.3 13.6 237 10.5
2007-05-22 07:50:28 51°13.766 2°52.517 240.9 13.6 238 10.5
2007-05-22 07:50:33 51°13.755 2°52.491 240.9 13.7 237 10.5
2007-05-22 07:50:38 51°13.746 2°52.466 240.8 13.7 239 10.5
2007-05-22 07:50:43 51°13.735 2°52.441 241.3 13.7 237 10.5
2007-05-22 07:50:48 51°13.725 2°52.415 240.5 13.8 238 10.5
2007-05-22 07:50:53 51°13.715 2°52.389 240.8 13.8 238 10.5
2007-05-22 07:50:58 51°13.705 2°52.363 240.9 13.7 238 10.6
2007-05-22 07:51:03 51°13.695 2°52.338 241.2 13.7 239 10.5
2007-05-22 07:51:08 51°13.685 2°52.312 241.3 13.7 238 10.6
2007-05-22 07:51:13 51°13.674 2°52.287 241.7 13.7 237 10.7
2007-05-22 07:51:18 51°13.665 2°52.261 241.2 13.7 239 10.5
2007-05-22 07:51:23 51°13.654 2°52.235 241.5 13.7 237 10.6
2007-05-22 07:51:28 51°13.644 2°52.209 240.9 13.8 240 10.6
2007-05-22 07:51:33 51°13.634 2°52.184 241.6 13.6 237 10.7
2007-05-22 07:51:38 51°13.625 2°52.158 241.5 13.6 240 10.6
2007-05-22 07:51:43 51°13.614 2°52.133 241.6 13.7 237 10.7
2007-05-22 07:51:48 51°13.605 2°52.107 241.4 13.7 239 10.6
2007-05-22 07:51:53 51°13.595 2°52.081 241.3 13.6 238 10.6
2007-05-22 07:51:58 51°13.585 2°52.055 241.8 13.6 238 10.6
2007-05-22 07:52:03 51°13.575 2°52.029 241.2 13.8 239 10.6
2007-05-22 07:52:08 51°13.565 2°52.004 241.9 13.7 238 10.6
2007-05-22 07:52:13 51°13.555 2°51.978 241.8 13.6 238 10.6
2007-05-22 07:52:18 51°13.544 2°51.953 241.3 13.7 237 10.7
2007-05-22 07:52:23 51°13.534 2°51.927 240.9 13.8 239 10.6
2007-05-22 07:52:28 51°13.524 2°51.901 241.5 13.6 237 10.6
2007-05-22 07:52:33 51°13.514 2°51.876 241 13.6 237 10.6
2007-05-22 07:52:38 51°13.504 2°51.851 240 13.6 238 10.7
2007-05-22 07:52:43 51°13.494 2°51.825 240.4 13.8 238 10.7
2007-05-22 07:52:48 51°13.483 2°51.799 240.4 13.8 238 10.7
2007-05-22 07:52:53 51°13.474 2°51.773 241 13.7 239 10.8
2007-05-22 07:52:58 51°13.463 2°51.748 242.1 13.7 237 10.8
2007-05-22 07:53:03 51°13.454 2°51.722 241.1 13.8 239 10.7
2007-05-22 07:53:08 51°13.443 2°51.697 241.1 13.7 236 10.7
2007-05-22 07:53:13 51°13.433 2°51.671 240.2 13.8 239 10.7
2007-05-22 07:53:18 51°13.423 2°51.645 240.6 13.7 238 10.7
2007-05-22 07:53:23 51°13.413 2°51.62 241.6 13.7 237 10.7
2007-05-22 07:53:28 51°13.402 2°51.594 240.8 13.8 237 10.7
2007-05-22 07:53:33 51°13.393 2°51.568 240.7 13.7 238 10.7
2007-05-22 07:53:38 51°13.382 2°51.543 241.2 13.7 237 10.7
2007-05-22 07:53:43 51°13.372 2°51.517 240.9 13.7 237 10.7
2007-05-22 07:53:48 51°13.362 2°51.491 241.1 13.9 238 10.7
2007-05-22 07:53:53 51°13.352 2°51.465 241 13.8 239 10.6
2007-05-22 07:53:58 51°13.341 2°51.44 241.9 13.8 237 10.7
2007-05-22 07:54:03 51°13.332 2°51.413 240.6 13.8 240 10.6
2007-05-22 07:54:08 51°13.321 2°51.388 241.8 13.8 237 10.7
2007-05-22 07:54:13 51°13.312 2°51.361 241.8 13.7 240 10.7
2007-05-22 07:54:18 51°13.302 2°51.336 242.5 13.8 237 10.7
2007-05-22 07:54:23 51°13.292 2°51.31 241.6 13.8 240 10.7
2007-05-22 07:54:28 51°13.282 2°51.284 241.7 13.8 238 10.6
2007-05-22 07:54:33 51°13.272 2°51.258 241.8 13.8 239 10.7
2007-05-22 07:54:38 51°13.262 2°51.232 242 13.7 239 10.7
2007-05-22 07:54:43 51°13.252 2°51.206 242.6 13.7 237 10.7
2007-05-22 07:54:48 51°13.241 2°51.181 241.8 13.8 237 10.7
2007-05-22 07:54:53 51°13.231 2°51.155 240.9 13.7 238 10.8
2007-05-22 07:54:58 51°13.221 2°51.13 240.8 13.8 235 10.8
2007-05-22 07:55:03 51°13.211 2°51.104 239.9 13.9 240 10.7
2007-05-22 07:55:08 51°13.2 2°51.078 241.1 13.8 236 10.7
2007-05-22 07:55:13 51°13.191 2°51.052 241.3 13.8 239 10.7
2007-05-22 07:55:18 51°13.18 2°51.027 241.6 13.7 237 10.8
2007-05-22 07:55:23 51°13.17 2°51.001 241.8 13.8 238 10.8
2007-05-22 07:55:28 51°13.16 2°50.975 241.6 13.8 239 10.8
2007-05-22 07:55:33 51°13.15 2°50.949 242.3 13.7 237 10.7
2007-05-22 07:55:38 51°13.14 2°50.924 241.3 13.7 238 10.8
2007-05-22 07:55:43 51°13.13 2°50.898 241.3 13.8 239 10.8
2007-05-22 07:55:48 51°13.12 2°50.872 241.5 13.7 238 10.8
2007-05-22 07:55:53 51°13.11 2°50.846 241.8 13.7 239 10.9
2007-05-22 07:55:58 51°13.099 2°50.821 241.9 13.7 237 10.7
2007-05-22 07:56:03 51°13.089 2°50.795 241.3 13.8 238 10.8
2007-05-22 07:56:08 51°13.079 2°50.769 241.3 13.7 239 10.8
2007-05-22 07:56:13 51°13.069 2°50.744 242 13.7 237 10.9
2007-05-22 07:56:18 51°13.059 2°50.718 241.6 13.8 238 10.8
2007-05-22 07:56:23 51°13.049 2°50.692 241.5 13.7 239 10.8
2007-05-22 07:56:28 51°13.039 2°50.666 242.1 13.7 237 10.8
2007-05-22 07:56:33 51°13.029 2°50.64 241.2 13.9 239 10.7
2007-05-22 07:56:38 51°13.019 2°50.614 241.3 13.8 238 10.7
2007-05-22 07:56:43 51°13.009 2°50.589 241.6 13.7 238 10.8
2007-05-22 07:56:48 51°12.999 2°50.563 241.6 13.9 238 10.7
2007-05-22 07:56:53 51°12.989 2°50.537 241.5 13.8 239 10.8
2007-05-22 07:56:58 51°12.978 2°50.511 241.9 13.8 237 10.8
2007-05-22 07:57:03 51°12.969 2°50.484 240.9 13.9 240 10.8
2007-05-22 07:57:08 51°12.958 2°50.459 241.6 13.9 236 10.8
2007-05-22 07:57:13 51°12.948 2°50.433 240.9 13.9 239 10.7
2007-05-22 07:57:18 51°12.938 2°50.407 240.9 13.9 237 10.7
2007-05-22 07:57:23 51°12.928 2°50.381 241.5 13.8 239 10.8
2007-05-22 07:57:28 51°12.917 2°50.355 241.3 13.8 238 10.7
2007-05-22 07:57:33 51°12.907 2°50.329 241.6 13.9 238 10.8
2007-05-22 07:57:38 51°12.897 2°50.303 240.9 13.8 238 10.7
2007-05-22 07:57:43 51°12.887 2°50.277 241.5 13.9 238 10.7
2007-05-22 07:57:48 51°12.877 2°50.251 240.9 13.9 238 10.8
2007-05-22 07:57:53 51°12.866 2°50.225 240.9 13.9 237 10.8
2007-05-22 07:57:58 51°12.856 2°50.199 240.8 13.8 239 10.8
2007-05-22 07:58:03 51°12.846 2°50.173 241.6 13.9 237 10.8
2007-05-22 07:58:08 51°12.836 2°50.147 241 13.9 239 10.8
2007-05-22 07:58:13 51°12.826 2°50.121 241.4 13.9 238 10.8
2007-05-22 07:58:18 51°12.816 2°50.095 241.7 13.9 238 10.7
2007-05-22 07:58:23 51°12.806 2°50.069 241.3 13.9 239 10.8
2007-05-22 07:58:28 51°12.795 2°50.042 241.8 14 239 10.7
2007-05-22 07:58:33 51°12.786 2°50.016 241.8 13.9 240 10.7
2007-05-22 07:58:38 51°12.775 2°49.99 242.6 13.9 238 10.8
2007-05-22 07:58:43 51°12.766 2°49.963 241.7 13.9 240 10.7
2007-05-22 07:58:48 51°12.755 2°49.937 241.7 14 237 10.7
2007-05-22 07:58:53 51°12.746 2°49.911 241.4 13.8 239 10.7
2007-05-22 07:58:58 51°12.735 2°49.886 241.5 14 236 10.7
2007-05-22 07:59:03 51°12.725 2°49.859 240.2 14 239 10.8
2007-05-22 07:59:08 51°12.714 2°49.833 241.4 13.9 238 10.8
2007-05-22 07:59:13 51°12.704 2°49.807 241.1 13.9 238 10.7
2007-05-22 07:59:18 51°12.694 2°49.781 241.1 14 238 10.8
2007-05-22 07:59:23 51°12.684 2°49.755 241 13.9 239 10.7
2007-05-22 07:59:28 51°12.674 2°49.729 241.6 13.8 238 10.8
2007-05-22 07:59:33 51°12.663 2°49.703 240.9 14 238 10.8
2007-05-22 07:59:38 51°12.654 2°49.676 240.9 13.9 240 10.7
2007-05-22 07:59:43 51°12.643 2°49.65 242.3 13.9 238 10.7
2007-05-22 07:59:48 51°12.634 2°49.623 240.8 14 241 10.8
2007-05-22 07:59:53 51°12.623 2°49.598 242.1 13.9 237 10.7
2007-05-22 07:59:58 51°12.614 2°49.571 241.7 13.9 239 10.7
2007-05-22 08:00:03 51°12.603 2°49.545 241.6 13.9 238 10.7
2007-05-22 08:00:08 51°12.594 2°49.519 241.4 13.8 239 10.8
2007-05-22 08:00:13 51°12.582 2°49.494 241.7 13.9 236 10.7
2007-05-22 08:00:18 51°12.573 2°49.467 240.2 13.9 239 10.7
2007-05-22 08:00:23 51°12.562 2°49.442 241 13.8 236 10.7
2007-05-22 08:00:28 51°12.552 2°49.416 240.2 13.9 238 10.7
2007-05-22 08:00:33 51°12.541 2°49.39 240 14 238 10.6
2007-05-22 08:00:38 51°12.531 2°49.364 240.9 13.9 238 10.7
2007-05-22 08:00:43 51°12.521 2°49.338 241.2 13.9 238 10.6
2007-05-22 08:00:48 51°12.511 2°49.312 241.4 13.9 238 10.6
2007-05-22 08:00:53 51°12.501 2°49.286 241.3 13.9 238 10.6
2007-05-22 08:00:58 51°12.491 2°49.26 241.4 13.9 238 10.6
2007-05-22 08:01:03 51°12.481 2°49.233 241 13.9 238 10.7
2007-05-22 08:01:08 51°12.471 2°49.207 240.9 13.9 239 10.6
2007-05-22 08:01:13 51°12.46 2°49.182 241.2 13.9 237 10.5
2007-05-22 08:01:18 51°12.451 2°49.155 240.8 13.9 239 10.6
2007-05-22 08:01:23 51°12.44 2°49.13 240.8 14 236 10.6
2007-05-22 08:01:28 51°12.43 2°49.103 240.2 14 241 10.6
2007-05-22 08:01:33 51°12.419 2°49.078 241.5 13.9 236 10.5
2007-05-22 08:01:38 51°12.41 2°49.051 240.3 14 240 10.5
2007-05-22 08:01:43 51°12.399 2°49.025 241.4 14 237 10.6
2007-05-22 08:01:48 51°12.389 2°48.998 241.6 14.1 240 10.6
2007-05-22 08:01:53 51°12.379 2°48.972 241.9 13.9 238 10.6
2007-05-22 08:01:58 51°12.369 2°48.945 241.8 14.1 238 10.5
2007-05-22 08:02:03 51°12.359 2°48.918 240.9 14 240 10.5
2007-05-22 08:02:08 51°12.349 2°48.893 242.4 14 237 10.6
2007-05-22 08:02:13 51°12.339 2°48.866 241.2 13.7 239 10.6
2007-05-22 08:02:18 51°12.328 2°48.842 241.2 13.4 236 10.5
2007-05-22 08:02:23 51°12.319 2°48.817 240 13.1 238 10.5
2007-05-22 08:02:28 51°12.309 2°48.794 240 12.9 235 10.6
2007-05-22 08:02:33 51°12.3 2°48.77 239.1 12.6 238 10.6
2007-05-22 08:02:38 51°12.29 2°48.748 239.3 12.3 237 10.6
2007-05-22 08:02:43 51°12.283 2°48.724 239.7 12.1 243 10.6
2007-05-22 08:02:48 51°12.277 2°48.699 244.1 11.8 248 10.7
2007-05-22 08:02:53 51°12.271 2°48.676 250.8 11.6 248 10.8
2007-05-22 08:02:58 51°12.264 2°48.653 252.5 11.4 244 10.7
2007-05-22 08:03:03 51°12.256 2°48.633 249.6 10.7 238 10.7
2007-05-22 08:03:08 51°12.247 2°48.616 244.2 10 231 10.6
2007-05-22 08:03:13 51°12.237 2°48.603 236.5 9.3 220 10.7
2007-05-22 08:03:18 51°12.227 2°48.593 226.3 8.7 212 10.6
2007-05-22 08:03:23 51°12.216 2°48.586 215.9 8.1 203 10.5
2007-05-22 08:03:28 51°12.206 2°48.582 206.7 7.7 195 10.6
2007-05-22 08:03:33 51°12.196 2°48.58 196.7 7.2 187 10.6
2007-05-22 08:03:38 51°12.187 2°48.581 187.7 6.8 176 10.5
2007-05-22 08:03:43 51°12.178 2°48.583 177.8 6.6 170 10.5
2007-05-22 08:03:48 51°12.17 2°48.588 168.9 6.2 160 10.4
2007-05-22 08:03:53 51°12.162 2°48.595 159.6 6 150 10.3
2007-05-22 08:03:58 51°12.156 2°48.602 150.2 5.7 143 10.3
2007-05-22 08:04:03 51°12.151 2°48.611 141.5 5.5 133 10.2
2007-05-22 08:04:08 51°12.147 2°48.621 132.8 5.3 123 10.3
2007-05-22 08:04:13 51°12.144 2°48.632 123.1 5.1 113 10.1
2007-05-22 08:04:18 51°12.142 2°48.642 114.3 5 103 10
2007-05-22 08:04:23 51°12.142 2°48.654 105.3 4.9 95 10
2007-05-22 08:04:28 51°12.143 2°48.664 96.7 4.9 83 10
2007-05-22 08:04:33 51°12.145 2°48.675 87.5 4.8 73 9.8
2007-05-22 08:04:38 51°12.148 2°48.684 78.7 4.8 62 9.9
2007-05-22 08:04:43 51°12.152 2°48.692 70.3 4.8 54 9.7
2007-05-22 08:04:48 51°12.157 2°48.701 61.2 5.2 45 9.9
2007-05-22 08:04:53 51°12.163 2°48.709 52.6 6 40 9.9
2007-05-22 08:04:58 51°12.171 2°48.718 47.1 6.8 39 9.9
2007-05-22 08:05:03 51°12.179 2°48.728 44.5 7.7 37 10
2007-05-22 08:05:08 51°12.189 2°48.739 43.8 8.4 37 10
2007-05-22 08:05:13 51°12.199 2°48.751 43.3 9 37 10
2007-05-22 08:05:18 51°12.21 2°48.764 42.9 9.5 37 10
2007-05-22 08:05:23 51°12.22 2°48.777 43.5 9.9 39 10.1
2007-05-22 08:05:28 51°12.231 2°48.792 44.6 10.2 39 10
2007-05-22 08:05:33 51°12.243 2°48.806 45.6 10.5 40 10.1
2007-05-22 08:05:38 51°12.254 2°48.822 46 10.7 40 10.1
2007-05-22 08:05:43 51°12.265 2°48.837 46.8 10.9 41 10.2
2007-05-22 08:05:48 51°12.277 2°48.853 47.1 11.1 41 10.2
2007-05-22 08:05:53 51°12.289 2°48.87 47.2 11.3 41 10.3
2007-05-22 08:05:58 51°12.3 2°48.887 47.4 11.5 42 10.4
2007-05-22 08:06:03 51°12.312 2°48.904 47.4 11.7 42 10.4
2007-05-22 08:06:08 51°12.324 2°48.921 47.7 11.7 43 10.3
2007-05-22 08:06:13 51°12.336 2°48.94 48.3 11.8 45 10.4
2007-05-22 08:06:18 51°12.347 2°48.959 50 11.9 46 10.3
2007-05-22 08:06:23 51°12.359 2°48.978 51.2 12 46 10.4
2007-05-22 08:06:28 51°12.37 2°48.998 52.1 12 48 10.3
2007-05-22 08:06:33 51°12.381 2°49.017 53.2 12 48 10.5
2007-05-22 08:06:38 51°12.392 2°49.037 53.6 12.1 49 10.5
2007-05-22 08:06:43 51°12.403 2°49.057 53.8 12.1 48 10.5
2007-05-22 08:06:48 51°12.414 2°49.077 54 12.1 49 10.6
2007-05-22 08:06:53 51°12.425 2°49.098 53.9 12.2 49 10.4
2007-05-22 08:06:58 51°12.436 2°49.118 54.2 12.1 48 10.5
2007-05-22 08:07:03 51°12.448 2°49.138 53.7 12.2 48 10.5
2007-05-22 08:07:08 51°12.459 2°49.157 53.5 12.2 47 10.5
2007-05-22 08:07:13 51°12.47 2°49.178 53.3 12.2 48 10.6
2007-05-22 08:07:18 51°12.481 2°49.197 53.5 12.2 47 10.7
2007-05-22 08:07:23 51°12.493 2°49.218 53 12.2 48 10.7
2007-05-22 08:07:28 51°12.504 2°49.237 52.9 12.2 47 10.7
2007-05-22 08:07:33 51°12.516 2°49.257 52.7 12.3 48 10.9
2007-05-22 08:07:38 51°12.527 2°49.277 52.9 12.3 47 10.8
2007-05-22 08:07:43 51°12.539 2°49.297 52.7 12.2 48 10.7
2007-05-22 08:07:48 51°12.55 2°49.317 52.9 12.2 48 10.8
2007-05-22 08:07:53 51°12.562 2°49.337 52.9 12.3 48 10.8
2007-05-22 08:07:58 51°12.573 2°49.357 53.2 12.3 48 10.8
2007-05-22 08:08:03 51°12.584 2°49.377 53.2 12.2 48 11
2007-05-22 08:08:08 51°12.596 2°49.397 53.5 12.2 48 11.1
2007-05-22 08:08:13 51°12.607 2°49.417 53.7 12.2 47 11
2007-05-22 08:08:18 51°12.618 2°49.438 53.3 12.2 49 11.1
2007-05-22 08:08:23 51°12.63 2°49.458 53.4 12.2 48 11.1
2007-05-22 08:08:28 51°12.641 2°49.478 53.4 12.2 48 11.2
2007-05-22 08:08:33 51°12.653 2°49.497 53.3 12.2 47 11.1
2007-05-22 08:08:38 51°12.664 2°49.518 52.9 12.2 48 11.2
2007-05-22 08:08:43 51°12.675 2°49.538 53 12.2 48 11.3
2007-05-22 08:08:48 51°12.686 2°49.558 53.1 12.2 48 11.2
2007-05-22 08:08:53 51°12.697 2°49.578 53.1 12.2 48 11.2
2007-05-22 08:08:58 51°12.709 2°49.599 53.1 12.2 48 11.2
2007-05-22 08:09:03 51°12.72 2°49.619 53.2 12.2 49 11.2
2007-05-22 08:09:08 51°12.731 2°49.639 53.4 12.2 49 11.3
2007-05-22 08:09:13 51°12.743 2°49.659 53.5 12.2 49 11.3
2007-05-22 08:09:18 51°12.753 2°49.679 53.5 12.2 49 11.5
2007-05-22 08:09:23 51°12.764 2°49.7 53.8 12.1 49 11.2
2007-05-22 08:09:28 51°12.775 2°49.72 53.8 12.1 49 11.3
2007-05-22 08:09:33 51°12.786 2°49.74 53.9 12.2 49 11.3
2007-05-22 08:09:38 51°12.798 2°49.76 53.9 12.2 48 11.3
2007-05-22 08:09:43 51°12.809 2°49.781 53.4 12.2 49 11.3
2007-05-22 08:09:48 51°12.82 2°49.801 53.5 12.2 48 11.3
2007-05-22 08:09:53 51°12.832 2°49.821 53.4 12.2 48 11.4
2007-05-22 08:09:58 51°12.843 2°49.841 52.9 12.2 49 11.4
2007-05-22 08:10:03 51°12.854 2°49.862 53.4 12.3 49 11.4
2007-05-22 08:10:08 51°12.865 2°49.882 53.9 12.2 50 11.5
2007-05-22 08:10:13 51°12.876 2°49.903 54.4 12.3 51 11.4
2007-05-22 08:10:18 51°12.887 2°49.924 55.1 12.3 51 11.4
2007-05-22 08:10:23 51°12.897 2°49.945 55.1 12.3 50 11.4
2007-05-22 08:10:28 51°12.908 2°49.966 55.4 12.3 52 11.4
2007-05-22 08:10:33 51°12.919 2°49.988 55.8 12.3 51 11.4
2007-05-22 08:10:38 51°12.929 2°50.009 55.8 12.3 51 11.3
2007-05-22 08:10:43 51°12.94 2°50.03 55.5 12.3 51 11.3
2007-05-22 08:10:48 51°12.951 2°50.051 55.4 12.3 51 11.4
2007-05-22 08:10:53 51°12.962 2°50.072 55.3 12.3 51 11.4
2007-05-22 08:10:58 51°12.973 2°50.093 55.2 12.3 50 11.4
2007-05-22 08:11:03 51°12.984 2°50.113 55.1 12.2 50 11.2
2007-05-22 08:11:08 51°12.995 2°50.134 54.9 12.2 51 11.3
2007-05-22 08:11:13 51°13.006 2°50.155 55.2 12.3 50 11.3
2007-05-22 08:11:18 51°13.017 2°50.176 55.2 12.3 51 11.2
2007-05-22 08:11:23 51°13.028 2°50.197 55.2 12.3 51 11.3
2007-05-22 08:11:28 51°13.038 2°50.218 55.4 12.3 50 11.3
2007-05-22 08:11:33 51°13.049 2°50.239 55.4 12.3 51 11.3
2007-05-22 08:11:38 51°13.06 2°50.26 55.7 12.3 50 11.2
2007-05-22 08:11:43 51°13.071 2°50.281 55.4 12.3 51 11.2
2007-05-22 08:11:48 51°13.081 2°50.302 55.1 12.3 51 11.3
2007-05-22 08:11:53 51°13.092 2°50.323 55.3 12.2 51 11.3
2007-05-22 08:11:58 51°13.103 2°50.344 55.3 12.2 51 11.3
2007-05-22 08:12:03 51°13.113 2°50.365 55.3 12.3 52 11.3
2007-05-22 08:12:08 51°13.124 2°50.387 55.5 12.2 52 11.2
2007-05-22 08:12:13 51°13.133 2°50.409 56.7 12.2 55 11.2
2007-05-22 08:12:18 51°13.143 2°50.431 58.5 12.2 57 11.2
2007-05-22 08:12:23 51°13.151 2°50.454 60.3 12.1 60 11.2
2007-05-22 08:12:28 51°13.16 2°50.478 62.7 12.2 61 11.1
2007-05-22 08:12:33 51°13.167 2°50.502 64.3 12.1 63 11.2
2007-05-22 08:12:38 51°13.175 2°50.526 65.5 12.1 64 11.1
2007-05-22 08:12:43 51°13.182 2°50.55 66.6 12.1 63 11.1
2007-05-22 08:12:48 51°13.19 2°50.574 66.7 12.1 65 11.1
2007-05-22 08:12:53 51°13.197 2°50.598 67.7 12.1 63 11.2
2007-05-22 08:12:58 51°13.204 2°50.622 67.5 12.1 64 11.2
2007-05-22 08:13:03 51°13.213 2°50.645 66.8 12.1 61 11.2
2007-05-22 08:13:08 51°13.221 2°50.669 65.6 12.1 62 11.2
2007-05-22 08:13:13 51°13.229 2°50.692 64.8 12.1 61 11.1
2007-05-22 08:13:18 51°13.237 2°50.715 64.3 12.1 60 11.1
2007-05-22 08:13:23 51°13.245 2°50.739 64.1 12.2 61 11.1
2007-05-22 08:13:28 51°13.254 2°50.762 64.1 12.1 60 11
2007-05-22 08:13:33 51°13.262 2°50.785 63.8 12.1 61 11
2007-05-22 08:13:38 51°13.27 2°50.809 63.9 12.1 61 11
2007-05-22 08:13:43 51°13.278 2°50.832 64.1 12.1 61 11
2007-05-22 08:13:48 51°13.286 2°50.856 64.3 12.1 62 11
2007-05-22 08:13:53 51°13.294 2°50.879 64.7 12.1 61 11
2007-05-22 08:13:58 51°13.303 2°50.902 64.5 12.1 61 11.1
2007-05-22 08:14:03 51°13.311 2°50.926 64.3 12.1 61 11
2007-05-22 08:14:08 51°13.319 2°50.949 64.5 12.1 60 11
2007-05-22 08:14:13 51°13.327 2°50.972 63.8 12.1 61 11
2007-05-22 08:14:18 51°13.336 2°50.995 63.9 12.1 59 10.9
2007-05-22 08:14:23 51°13.344 2°51.019 63.6 12.1 60 11
2007-05-22 08:14:28 51°13.353 2°51.041 63.3 12.1 58 10.8
2007-05-22 08:14:33 51°13.362 2°51.064 62.1 12.1 59 10.9
2007-05-22 08:14:38 51°13.372 2°51.086 61.6 12.1 56 10.9
2007-05-22 08:14:43 51°13.381 2°51.109 60.4 12.1 57 10.9
2007-05-22 08:14:48 51°13.391 2°51.13 60.2 12.1 55 11
2007-05-22 08:14:53 51°13.4 2°51.153 59.5 12.2 56 10.9
2007-05-22 08:14:58 51°13.41 2°51.175 59.7 12.2 55 10.9
2007-05-22 08:15:03 51°13.419 2°51.197 59.7 12.2 56 10.9
2007-05-22 08:15:08 51°13.429 2°51.219 59.9 12.2 56 10.8
2007-05-22 08:15:13 51°13.438 2°51.242 60 12.2 56 10.9
2007-05-22 08:15:18 51°13.448 2°51.264 60 12.2 56 10.9
2007-05-22 08:15:23 51°13.457 2°51.286 60.1 12.2 55 10.9
2007-05-22 08:15:28 51°13.466 2°51.309 59.7 12.2 57 10.9
2007-05-22 08:15:33 51°13.476 2°51.331 60.2 12.2 56 10.9
2007-05-22 08:15:38 51°13.485 2°51.354 60 12.2 57 10.8
2007-05-22 08:15:43 51°13.495 2°51.376 60.2 12.2 56 10.9
2007-05-22 08:15:48 51°13.504 2°51.399 60.4 12.2 57 10.8
2007-05-22 08:15:53 51°13.514 2°51.421 60.4 12.3 56 10.8
2007-05-22 08:15:58 51°13.522 2°51.444 60.2 12.2 58 10.8
2007-05-22 08:16:03 51°13.531 2°51.467 61 12.3 58 10.8
2007-05-22 08:16:08 51°13.54 2°51.49 61.7 12.2 59 10.7
2007-05-22 08:16:13 51°13.549 2°51.513 62.5 12.1 59 10.7
2007-05-22 08:16:18 51°13.557 2°51.536 62.9 12.2 60 10.8
2007-05-22 08:16:23 51°13.566 2°51.56 63.2 12.2 60 10.8
2007-05-22 08:16:28 51°13.574 2°51.583 63.5 12.2 61 10.7
2007-05-22 08:16:33 51°13.582 2°51.607 63.8 12.3 60 10.7
2007-05-22 08:16:38 51°13.591 2°51.63 64.1 12.2 60 10.7
2007-05-22 08:16:43 51°13.599 2°51.654 63.5 12.2 60 10.7
2007-05-22 08:16:48 51°13.608 2°51.677 63.5 12.2 60 10.7
2007-05-22 08:16:53 51°13.616 2°51.7 63.4 12.2 59 10.7
2007-05-22 08:16:58 51°13.625 2°51.723 63.3 12.2 60 10.7
2007-05-22 08:17:03 51°13.633 2°51.747 63.4 12.2 60 10.6
2007-05-22 08:17:08 51°13.641 2°51.77 63.7 12.2 60 10.6
2007-05-22 08:17:13 51°13.65 2°51.794 63.5 12.2 61 10.7
2007-05-22 08:17:18 51°13.658 2°51.817 63.8 12.2 60 10.6
2007-05-22 08:17:23 51°13.666 2°51.84 63.7 12.2 60 10.7
2007-05-22 08:17:28 51°13.675 2°51.864 63.7 12.2 60 10.7
2007-05-22 08:17:33 51°13.683 2°51.887 63.4 12.2 59 10.6
2007-05-22 08:17:38 51°13.692 2°51.91 63.2 12.1 60 10.5
2007-05-22 08:17:43 51°13.7 2°51.933 63.2 12.1 61 10.5
2007-05-22 08:17:48 51°13.708 2°51.957 63.5 12.2 60 10.6
2007-05-22 08:17:53 51°13.716 2°51.98 63.7 12.2 61 10.6
2007-05-22 08:17:58 51°13.724 2°52.004 64 12.2 61 10.6
2007-05-22 08:18:03 51°13.733 2°52.027 64 12.1 60 10.5
2007-05-22 08:18:08 51°13.741 2°52.05 64 12.1 61 10.5
2007-05-22 08:18:13 51°13.749 2°52.074 63.9 12.1 60 10.6
2007-05-22 08:18:18 51°13.757 2°52.097 63.7 12.2 61 10.6
2007-05-22 08:18:23 51°13.766 2°52.121 63.8 12.2 60 10.5
2007-05-22 08:18:28 51°13.774 2°52.144 63.9 12.2 60 10.5
2007-05-22 08:18:33 51°13.782 2°52.167 63.6 12.2 60 10.5
2007-05-22 08:18:38 51°13.791 2°52.191 63.8 12.2 60 10.5
2007-05-22 08:18:43 51°13.8 2°52.214 63.4 12.2 60 10.5
2007-05-22 08:18:48 51°13.808 2°52.237 63.1 12.1 60 10.6
2007-05-22 08:18:53 51°13.816 2°52.261 63 12.2 61 10.6
2007-05-22 08:18:58 51°13.824 2°52.284 63.6 12.1 60 10.4
2007-05-22 08:19:03 51°13.833 2°52.307 63.5 12.1 61 10.6
2007-05-22 08:19:08 51°13.841 2°52.331 63.8 12.2 60 10.5
2007-05-22 08:19:13 51°13.849 2°52.354 63.8 12.2 61 10.4
2007-05-22 08:19:18 51°13.858 2°52.377 63.7 12.2 60 10.5
2007-05-22 08:19:23 51°13.866 2°52.401 63 12.2 61 10.5
2007-05-22 08:19:28 51°13.875 2°52.424 63.6 12.2 60 10.5
2007-05-22 08:19:33 51°13.883 2°52.448 63.6 12.2 61 10.5
2007-05-22 08:19:38 51°13.891 2°52.471 63.7 12.2 60 10.4
2007-05-22 08:19:43 51°13.9 2°52.494 63.7 12.1 60 10.5
2007-05-22 08:19:48 51°13.908 2°52.518 63.2 12.1 61 10.5
2007-05-22 08:19:53 51°13.917 2°52.541 63.5 12.2 60 10.5
2007-05-22 08:19:58 51°13.925 2°52.565 63.2 12.1 60 10.4
2007-05-22 08:20:03 51°13.933 2°52.588 63.3 12.1 61 10.5
2007-05-22 08:20:08 51°13.941 2°52.611 63.4 12.1 60 10.5
2007-05-22 08:20:13 51°13.95 2°52.634 63.3 12.1 61 10.4
2007-05-22 08:20:18 51°13.958 2°52.658 63.4 12.1 61 10.5
2007-05-22 08:20:23 51°13.966 2°52.681 63.6 12.1 61 10.3
2007-05-22 08:20:28 51°13.974 2°52.704 63.8 12 60 10.4
2007-05-22 08:20:33 51°13.983 2°52.727 63.7 12 61 10.5
2007-05-22 08:20:38 51°13.991 2°52.75 63.3 12 60 10.4
2007-05-22 08:20:43 51°13.999 2°52.773 63.3 12.1 61 10.5
2007-05-22 08:20:48 51°14.007 2°52.797 63.3 12.1 60 10.3
2007-05-22 08:20:53 51°14.016 2°52.82 63.3 12.1 61 10.3
2007-05-22 08:20:58 51°14.024 2°52.843 63.4 12 61 10.3
2007-05-22 08:21:03 51°14.032 2°52.866 63.4 12.1 61 10.4
2007-05-22 08:21:08 51°14.04 2°52.889 63.6 12 61 10.3
2007-05-22 08:21:13 51°14.048 2°52.913 63.8 12.1 61 10.3
2007-05-22 08:21:18 51°14.056 2°52.936 63.8 12.1 60 10.2
2007-05-22 08:21:23 51°14.065 2°52.959 63.8 12.1 60 10.3
2007-05-22 08:21:28 51°14.073 2°52.982 63.6 12.1 60 10.2
2007-05-22 08:21:33 51°14.082 2°53.005 63.1 12.1 60 10.3
2007-05-22 08:21:38 51°14.09 2°53.028 63.1 12.1 59 10.2
2007-05-22 08:21:43 51°14.099 2°53.051 62.9 12.1 60 10.2
2007-05-22 08:21:48 51°14.107 2°53.074 63 12.1 60 10.2
2007-05-22 08:21:53 51°14.115 2°53.098 63.4 12.1 60 10.2
2007-05-22 08:21:58 51°14.124 2°53.121 63.2 12.1 60 10
2007-05-22 08:22:03 51°14.133 2°53.144 63.1 12 60 10.1
2007-05-22 08:22:08 51°14.141 2°53.166 62.9 12 60 9.9
2007-05-22 08:22:13 51°14.149 2°53.19 63.1 12 60 10
2007-05-22 08:22:18 51°14.158 2°53.212 63.1 12 60 9.9
2007-05-22 08:22:23 51°14.166 2°53.235 63.3 12 59 10
2007-05-22 08:22:28 51°14.174 2°53.258 63.3 12 60 10
2007-05-22 08:22:33 51°14.184 2°53.28 63.1 11.9 57 9.8
2007-05-22 08:22:38 51°14.193 2°53.302 61.5 11.9 56 9.8
2007-05-22 08:22:43 51°14.203 2°53.323 60.3 11.9 53 9.8
2007-05-22 08:22:48 51°14.213 2°53.344 58.1 11.9 52 9.9
2007-05-22 08:22:53 51°14.223 2°53.364 56.3 11.9 50 9.8
2007-05-22 08:22:58 51°14.234 2°53.384 55 11.9 49 9.8
2007-05-22 08:23:03 51°14.246 2°53.403 54.2 11.9 47 9.7
2007-05-22 08:23:08 51°14.258 2°53.421 52.2 11.9 43 9.8
2007-05-22 08:23:13 51°14.27 2°53.439 49.3 11.9 42 9.8
2007-05-22 08:23:18 51°14.283 2°53.455 47.1 11.9 39 9.8
2007-05-22 08:23:23 51°14.296 2°53.472 45.1 11.9 38 9.7
2007-05-22 08:23:28 51°14.309 2°53.487 44 11.9 35 9.6
2007-05-22 08:23:33 51°14.323 2°53.501 42 12 32 9.7
2007-05-22 08:23:38 51°14.337 2°53.514 39.1 12 30 9.7
2007-05-22 08:23:43 51°14.352 2°53.527 37 12 29 9.7
2007-05-22 08:23:48 51°14.367 2°53.539 35.5 12.1 28 9.7
2007-05-22 08:23:53 51°14.382 2°53.551 34.2 12.1 27 9.7
2007-05-22 08:23:58 51°14.397 2°53.563 33.3 12.1 26 9.6
2007-05-22 08:24:03 51°14.412 2°53.575 32.6 12.1 26 9.7
2007-05-22 08:24:08 51°14.427 2°53.586 32 12.1 26 9.6
2007-05-22 08:24:13 51°14.442 2°53.598 31.8 12.1 26 9.6
2007-05-22 08:24:18 51°14.457 2°53.609 31.7 12.1 26 9.7
2007-05-22 08:24:23 51°14.473 2°53.621 31.6 12.1 26 9.7
2007-05-22 08:24:28 51°14.488 2°53.633 31.7 12.1 27 9.7
2007-05-22 08:24:33 51°14.503 2°53.645 32.4 12.1 27 9.7
2007-05-22 08:24:38 51°14.518 2°53.658 32.5 12.1 27 9.7
2007-05-22 08:24:43 51°14.532 2°53.67 32.7 12.1 28 9.6
2007-05-22 08:24:48 51°14.547 2°53.682 33.3 12.1 27 9.6
2007-05-22 08:24:53 51°14.562 2°53.695 33.3 12.1 28 9.5
2007-05-22 08:24:58 51°14.577 2°53.707 33.3 12.1 27 9.6
2007-05-22 08:25:03 51°14.592 2°53.72 33.3 12.1 27 9.4
2007-05-22 08:25:08 51°14.607 2°53.731 32.9 12.1 27 9.5
2007-05-22 08:25:13 51°14.622 2°53.744 32.6 12.1 27 9.5
2007-05-22 08:25:18 51°14.637 2°53.756 32.7 12.2 27 9.9
2007-05-22 08:25:23 51°14.652 2°53.768 32.8 12.2 27 10.2
2007-05-22 08:25:28 51°14.668 2°53.781 32.9 12.3 27 10.8
2007-05-22 08:25:33 51°14.683 2°53.793 33.3 12.4 27 10.5
2007-05-22 08:25:38 51°14.699 2°53.804 33.2 12.4 24 10.7
2007-05-22 08:25:43 51°14.715 2°53.814 31 12.4 21 10.5
2007-05-22 08:25:48 51°14.731 2°53.823 28.7 12.4 19 10.7
2007-05-22 08:25:53 51°14.748 2°53.832 26.7 12.4 18 10.6
2007-05-22 08:25:58 51°14.764 2°53.84 25.3 12.3 17 10.2
2007-05-22 08:26:03 51°14.781 2°53.845 23.9 12.4 12 10
2007-05-22 08:26:08 51°14.798 2°53.849 20.7 12.3 8 9.5
2007-05-22 08:26:13 51°14.814 2°53.851 16.5 12.2 4 9.3
2007-05-22 08:26:18 51°14.831 2°53.85 12.8 12.1 358 9.1
2007-05-22 08:26:23 51°14.848 2°53.846 7.2 12.2 351 9.2
2007-05-22 08:26:28 51°14.865 2°53.84 1.5 12.2 346 9.1
2007-05-22 08:26:33 51°14.88 2°53.83 355.6 12.3 340 9
2007-05-22 08:26:38 51°14.896 2°53.82 349.8 12.3 337 9
2007-05-22 08:26:43 51°14.911 2°53.806 345.7 12.4 330 9.1
2007-05-22 08:26:48 51°14.925 2°53.79 340.4 12.5 325 9.1
2007-05-22 08:26:53 51°14.94 2°53.773 334.4 12.6 322 9.1
2007-05-22 08:26:58 51°14.953 2°53.756 330.3 12.7 320 9.1
2007-05-22 08:27:03 51°14.966 2°53.736 327.8 12.8 317 9.1
2007-05-22 08:27:08 51°14.979 2°53.717 325.6 12.8 316 9.2
2007-05-22 08:27:13 51°14.991 2°53.695 323.8 12.9 310 9.2
2007-05-22 08:27:18 51°15.001 2°53.671 319 13 304 9.2
2007-05-22 08:27:23 51°15.01 2°53.647 312.8 13.1 302 9.2
2007-05-22 08:27:28 51°15.019 2°53.622 309.1 13.1 300 9.2
2007-05-22 08:27:33 51°15.028 2°53.596 306.5 13.1 298 9.4
2007-05-22 08:27:38 51°15.036 2°53.57 304.4 13.2 296 9.3
2007-05-22 08:27:43 51°15.043 2°53.543 302.8 13.2 292 9.4
2007-05-22 08:27:48 51°15.048 2°53.515 300.1 13.2 286 9.5
2007-05-22 08:27:53 51°15.051 2°53.487 293.9 13.1 281 9.5
2007-05-22 08:27:58 51°15.052 2°53.458 289.1 13 273 9.4
2007-05-22 08:28:03 51°15.051 2°53.429 280.3 13.1 268 9.3
2007-05-22 08:28:08 51°15.049 2°53.4 273.1 13.1 264 9.5
2007-05-22 08:28:13 51°15.047 2°53.371 268.9 13.2 263 9.6
2007-05-22 08:28:18 51°15.043 2°53.342 266.4 13.3 258 9.6
2007-05-22 08:28:23 51°15.039 2°53.313 263.2 13.3 258 9.6
2007-05-22 08:28:28 51°15.034 2°53.285 260.7 13.4 254 9.8
2007-05-22 08:28:33 51°15.03 2°53.256 258.5 13.5 256 9.7
2007-05-22 08:28:38 51°15.025 2°53.227 257.6 13.5 254 9.7
2007-05-22 08:28:43 51°15.02 2°53.198 256.9 13.5 255 9.7
2007-05-22 08:28:48 51°15.015 2°53.169 256.8 13.5 255 9.7
2007-05-22 08:28:53 51°15.011 2°53.14 257.5 13.6 258 9.8
2007-05-22 08:28:58 51°15.007 2°53.11 259 13.6 257 9.8
2007-05-22 08:29:03 51°15.003 2°53.081 260 13.6 258 9.9
2007-05-22 08:29:08 51°14.999 2°53.051 260.5 13.6 259 10
2007-05-22 08:29:13 51°14.996 2°53.022 261.5 13.6 259 10.3
2007-05-22 08:29:18 51°14.992 2°52.992 261.5 13.7 260 10.1
2007-05-22 08:29:23 51°14.989 2°52.962 262 13.7 259 10.6
2007-05-22 08:29:28 51°14.985 2°52.932 262 13.8 259 10.9
2007-05-22 08:29:33 51°14.982 2°52.902 261.7 13.8 260 10.7
2007-05-22 08:29:38 51°14.978 2°52.873 262.2 13.7 258 10.8
2007-05-22 08:29:43 51°14.975 2°52.843 261.4 13.7 259 11
2007-05-22 08:29:48 51°14.971 2°52.814 261.4 13.7 259 10.9
2007-05-22 08:29:53 51°14.967 2°52.784 261.6 13.7 258 10.9
2007-05-22 08:29:58 51°14.963 2°52.755 261.2 13.7 257 10.8
2007-05-22 08:30:03 51°14.959 2°52.725 260.7 13.7 259 10.7
2007-05-22 08:30:08 51°14.955 2°52.695 261.1 13.7 257 10.9
2007-05-22 08:30:13 51°14.951 2°52.665 260.8 13.7 258 10.6
2007-05-22 08:30:18 51°14.947 2°52.636 261 13.8 258 10.8
2007-05-22 08:30:23 51°14.942 2°52.606 261.2 13.8 257 10.2
2007-05-22 08:30:28 51°14.939 2°52.576 260.9 13.8 258 10.1
2007-05-22 08:30:33 51°14.934 2°52.546 261.2 13.8 258 9.9
2007-05-22 08:30:38 51°14.931 2°52.517 261.6 13.8 259 10
2007-05-22 08:30:43 51°14.927 2°52.487 262 13.9 258 9.9
2007-05-22 08:30:48 51°14.923 2°52.457 262.1 13.9 258 10
2007-05-22 08:30:53 51°14.919 2°52.427 262 13.9 258 9.9
2007-05-22 08:30:58 51°14.915 2°52.396 261.9 14 258 9.8
2007-05-22 08:31:03 51°14.911 2°52.366 261.7 14 258 9.9
2007-05-22 08:31:08 51°14.907 2°52.336 262 13.9 258 10
2007-05-22 08:31:13 51°14.902 2°52.306 261.7 13.9 257 9.9
2007-05-22 08:31:18 51°14.898 2°52.276 261.4 14 257 10
2007-05-22 08:31:23 51°14.894 2°52.246 261.2 14 258 9.9
2007-05-22 08:31:28 51°14.89 2°52.216 261.7 13.9 257 9.8
2007-05-22 08:31:33 51°14.886 2°52.186 261.2 13.9 258 10
2007-05-22 08:31:38 51°14.881 2°52.155 261.4 14 257 10
2007-05-22 08:31:43 51°14.877 2°52.125 261.3 14 258 10.1
2007-05-22 08:31:48 51°14.873 2°52.095 261.8 13.9 257 10.1
2007-05-22 08:31:53 51°14.869 2°52.065 261.8 13.9 258 10.2
2007-05-22 08:31:58 51°14.865 2°52.035 261.6 14 257 10.1
2007-05-22 08:32:03 51°14.861 2°52.004 261.9 14 259 10.2
2007-05-22 08:32:08 51°14.857 2°51.974 262 13.9 258 10.1
2007-05-22 08:32:13 51°14.853 2°51.944 262.4 14 257 10.2
2007-05-22 08:32:18 51°14.849 2°51.914 261.6 14 259 10.1
2007-05-22 08:32:23 51°14.845 2°51.884 262.1 14 258 10.1
2007-05-22 08:32:28 51°14.841 2°51.854 261.7 14 258 10.1
2007-05-22 08:32:33 51°14.837 2°51.823 261.2 14 257 10.1
2007-05-22 08:32:38 51°14.832 2°51.793 261.4 14 257 10.1
2007-05-22 08:32:43 51°14.828 2°51.763 260.7 13.9 256 10.2
2007-05-22 08:32:48 51°14.823 2°51.734 260.8 13.8 257 10.2
2007-05-22 08:32:53 51°14.819 2°51.704 260.7 13.7 257 10.2
2007-05-22 08:32:58 51°14.815 2°51.675 261.1 13.5 258 10.3
2007-05-22 08:33:03 51°14.811 2°51.647 261.4 13 258 10.2
2007-05-22 08:33:08 51°14.808 2°51.62 261.4 12.6 258 10.3
2007-05-22 08:33:13 51°14.804 2°51.593 261.9 12.3 258 10.3
2007-05-22 08:33:18 51°14.801 2°51.567 262.1 12 258 10.4
2007-05-22 08:33:23 51°14.797 2°51.542 262.1 11.7 257 10.4
2007-05-22 08:33:28 51°14.794 2°51.517 262.1 11.3 258 10.6
2007-05-22 08:33:33 51°14.79 2°51.494 262 10.9 256 10.6
2007-05-22 08:33:38 51°14.787 2°51.471 261.7 10.6 258 10.7
2007-05-22 08:33:43 51°14.784 2°51.449 262 10.2 257 10.7
2007-05-22 08:33:48 51°14.781 2°51.428 262 9.9 258 10.7
2007-05-22 08:33:53 51°14.778 2°51.407 261.9 9.7 257 10.6
2007-05-22 08:33:58 51°14.775 2°51.386 262 9.4 257 10.6
2007-05-22 08:34:03 51°14.772 2°51.366 261.9 9.2 257 10.7
2007-05-22 08:34:08 51°14.769 2°51.347 261.7 9.1 257 10.8
2007-05-22 08:34:13 51°14.766 2°51.328 261.6 8.9 256 10.8
2007-05-22 08:34:18 51°14.764 2°51.309 261.5 8.8 257 10.8
2007-05-22 08:34:23 51°14.761 2°51.29 261.3 8.7 256 10.9
2007-05-22 08:34:28 51°14.758 2°51.272 261.3 8.3 257 10.7
2007-05-22 08:34:33 51°14.755 2°51.255 261.2 8 255 10.8
2007-05-22 08:34:38 51°14.753 2°51.239 261.2 7.7 256 10.8
2007-05-22 08:34:43 51°14.75 2°51.223 261.6 7.4 256 10.8
2007-05-22 08:34:48 51°14.748 2°51.207 261.5 7.2 256 10.9
2007-05-22 08:34:53 51°14.746 2°51.192 261.4 7 257 10.9
2007-05-22 08:34:58 51°14.743 2°51.178 261.6 6.7 256 10.8
2007-05-22 08:35:03 51°14.741 2°51.164 262 6.5 257 10.9
2007-05-22 08:35:08 51°14.739 2°51.151 262 6.3 256 10.8
2007-05-22 08:35:13 51°14.737 2°51.138 262.6 6.1 257 10.9
2007-05-22 08:35:18 51°14.736 2°51.125 263.2 5.9 258 10.9
2007-05-22 08:35:23 51°14.734 2°51.112 263.8 5.8 257 10.9
2007-05-22 08:35:28 51°14.732 2°51.1 264 5.6 257 10.9
2007-05-22 08:35:33 51°14.73 2°51.089 264.9 5.4 258 11
2007-05-22 08:35:38 51°14.729 2°51.077 265.6 5.2 258 11
2007-05-22 08:35:43 51°14.728 2°51.066 266.4 5.1 259 11
2007-05-22 08:35:48 51°14.726 2°51.055 267 5 260 11
2007-05-22 08:35:53 51°14.725 2°51.045 268.2 4.8 260 10.9
2007-05-22 08:35:58 51°14.724 2°51.034 269.3 4.6 261 11
2007-05-22 08:36:03 51°14.723 2°51.025 270.5 4.3 261 10.9
2007-05-22 08:36:08 51°14.722 2°51.016 271.7 4.2 261 11
2007-05-22 08:36:13 51°14.722 2°51.007 273.5 3.9 263 11
2007-05-22 08:36:18 51°14.721 2°50.999 275.1 3.7 263 11
2007-05-22 08:36:23 51°14.721 2°50.991 277 3.4 263 11.1
2007-05-22 08:36:28 51°14.72 2°50.984 278.8 3.2 264 11
2007-05-22 08:36:33 51°14.72 2°50.978 280.6 2.9 263 11
2007-05-22 08:36:38 51°14.72 2°50.972 282.3 2.8 262 11
2007-05-22 08:36:43 51°14.719 2°50.966 283.4 2.6 261 11
2007-05-22 08:36:48 51°14.719 2°50.961 283.9 2.5 262 10.9
2007-05-22 08:36:53 51°14.718 2°50.956 284.1 2.3 260 11
2007-05-22 08:36:58 51°14.718 2°50.951 284.2 2.2 261 11
2007-05-22 08:37:03 51°14.717 2°50.947 284.4 2.1 257 11.1
2007-05-22 08:37:08 51°14.716 2°50.943 284.6 1.9 256 11
2007-05-22 08:37:13 51°14.716 2°50.939 284.8 1.8 254 11
2007-05-22 08:37:18 51°14.715 2°50.935 284.9 1.7 251 11
2007-05-22 08:37:23 51°14.714 2°50.932 285.2 1.6 251 11.1
2007-05-22 08:37:28 51°14.713 2°50.929 285.4 1.5 247 11
2007-05-22 08:37:33 51°14.713 2°50.926 285.4 1.4 243 11
2007-05-22 08:37:38 51°14.712 2°50.924 285.1 1.3 242 11
2007-05-22 08:37:43 51°14.711 2°50.921 285 1.2 236 11
2007-05-22 08:37:48 51°14.71 2°50.919 284.7 1.1 231 11.1
2007-05-22 08:37:53 51°14.709 2°50.917 284.5 1.1 231 11.1
2007-05-22 08:37:58 51°14.708 2°50.916 283.9 1.1 229 11
2007-05-22 08:38:03 51°14.706 2°50.914 283.1 1.1 225 10.9
2007-05-22 08:38:08 51°14.706 2°50.912 282 1.1 225 11
2007-05-22 08:38:13 51°14.704 2°50.91 280.8 1.1 228 11.1
2007-05-22 08:38:18 51°14.703 2°50.908 279.5 1.1 229 11
2007-05-22 08:38:23 51°14.702 2°50.907 277.9 1.1 228 11
2007-05-22 08:38:28 51°14.701 2°50.905 276.5 1.1 226 11
2007-05-22 08:38:33 51°14.7 2°50.903 274.7 1.2 222 11
2007-05-22 08:38:38 51°14.699 2°50.901 273 1.1 227 11.1
2007-05-22 08:38:43 51°14.698 2°50.9 271.5 1.1 225 11.1
2007-05-22 08:38:48 51°14.697 2°50.898 270 1.1 225 11
2007-05-22 08:38:53 51°14.696 2°50.896 268 1.1 224 10.9
2007-05-22 08:38:58 51°14.695 2°50.894 266.3 1.1 225 11
2007-05-22 08:39:03 51°14.693 2°50.893 264.9 1.1 221 11
2007-05-22 08:39:08 51°14.692 2°50.891 263.2 1.1 221 11
2007-05-22 08:39:13 51°14.691 2°50.889 261.6 1.1 226 10.9
2007-05-22 08:39:18 51°14.69 2°50.888 260 1.1 226 11
2007-05-22 08:39:23 51°14.689 2°50.886 258.5 1.1 230 11
2007-05-22 08:39:28 51°14.688 2°50.884 257.1 1.1 227 11
2007-05-22 08:39:33 51°14.687 2°50.882 255.9 1.1 231 11.1
2007-05-22 08:39:38 51°14.686 2°50.88 254.6 1.1 228 10.9
2007-05-22 08:39:43 51°14.685 2°50.879 253.3 1.1 224 10.9
2007-05-22 08:39:48 51°14.684 2°50.877 251.9 1.1 228 11
2007-05-22 08:39:53 51°14.683 2°50.875 250.8 1.1 227 10.9
2007-05-22 08:39:58 51°14.682 2°50.873 249.5 1.2 225 10.9
2007-05-22 08:40:03 51°14.681 2°50.871 247.8 1.2 223 10.9
2007-05-22 08:40:08 51°14.68 2°50.869 246.7 1.2 226 10.9
2007-05-22 08:40:13 51°14.679 2°50.867 245.9 1.2 229 10.9
2007-05-22 08:40:18 51°14.677 2°50.865 244.9 1.2 229 11
2007-05-22 08:40:23 51°14.676 2°50.863 244 1.2 228 11
2007-05-22 08:40:28 51°14.675 2°50.861 243 1.2 228 10.9
2007-05-22 08:40:33 51°14.674 2°50.859 242.2 1.2 228 11
2007-05-22 08:40:38 51°14.673 2°50.858 241.4 1.2 227 11
2007-05-22 08:40:43 51°14.672 2°50.856 240.4 1.2 225 11.1
2007-05-22 08:40:48 51°14.671 2°50.853 239.6 1.2 230 11
2007-05-22 08:40:53 51°14.67 2°50.852 238.9 1.2 224 10.9
2007-05-22 08:40:58 51°14.669 2°50.85 238 1.2 228 10.9
2007-05-22 08:41:03 51°14.667 2°50.848 237.3 1.2 226 10.9
2007-05-22 08:41:08 51°14.666 2°50.846 236.6 1.2 231 10.9
2007-05-22 08:41:13 51°14.665 2°50.844 235.8 1.2 224 10.9
2007-05-22 08:41:18 51°14.664 2°50.842 235 1.2 227 10.9
2007-05-22 08:41:23 51°14.663 2°50.84 234.3 1.2 225 10.9
2007-05-22 08:41:28 51°14.662 2°50.838 233.6 1.3 228 10.9
2007-05-22 08:41:33 51°14.66 2°50.836 232.8 1.2 227 10.9
2007-05-22 08:41:38 51°14.659 2°50.834 232.2 1.2 224 10.9
2007-05-22 08:41:43 51°14.658 2°50.832 231.5 1.2 224 10.8
2007-05-22 08:41:48 51°14.657 2°50.83 230.8 1.2 228 10.8
2007-05-22 08:41:53 51°14.655 2°50.828 230.6 1.3 226 10.8
2007-05-22 08:41:58 51°14.654 2°50.826 230.5 1.3 225 10.8
2007-05-22 08:42:03 51°14.653 2°50.824 230.2 1.3 226 10.9
2007-05-22 08:42:08 51°14.652 2°50.822 229.9 1.2 227 10.8
2007-05-22 08:42:13 51°14.65 2°50.82 229.6 1.2 224 10.8
2007-05-22 08:42:18 51°14.649 2°50.818 229.6 1.2 224 10.9
2007-05-22 08:42:23 51°14.648 2°50.816 229.5 1.3 225 10.9
2007-05-22 08:42:28 51°14.646 2°50.814 229.3 1.3 226 10.8
2007-05-22 08:42:33 51°14.645 2°50.812 229.2 1.3 225 10.8
2007-05-22 08:42:38 51°14.644 2°50.811 229 1.3 227 10.8
2007-05-22 08:42:43 51°14.643 2°50.809 228.8 1.2 222 10.9
2007-05-22 08:42:48 51°14.642 2°50.807 228.9 1.2 222 10.9
2007-05-22 08:42:53 51°14.64 2°50.805 228.8 1.3 222 10.9
2007-05-22 08:42:58 51°14.639 2°50.803 228.9 1.3 220 10.9
2007-05-22 08:43:03 51°14.638 2°50.801 228.9 1.3 221 10.8
2007-05-22 08:43:08 51°14.637 2°50.799 228.6 1.4 224 10.8
2007-05-22 08:43:13 51°14.635 2°50.797 228.8 1.5 223 10.8
2007-05-22 08:43:18 51°14.634 2°50.794 229.1 1.5 226 10.8
2007-05-22 08:43:23 51°14.632 2°50.792 229 1.6 225 10.9
2007-05-22 08:43:28 51°14.631 2°50.789 229.1 1.7 225 10.8
2007-05-22 08:43:33 51°14.629 2°50.786 229.2 1.9 226 10.8
2007-05-22 08:43:38 51°14.627 2°50.783 229.5 2.1 226 10.7
2007-05-22 08:43:43 51°14.624 2°50.779 229.8 2.3 225 10.8
2007-05-22 08:43:48 51°14.622 2°50.775 230.3 2.5 227 10.8
2007-05-22 08:43:53 51°14.62 2°50.771 230.8 2.7 229 10.9
2007-05-22 08:43:58 51°14.617 2°50.766 231.6 2.8 229 10.8
2007-05-22 08:44:03 51°14.614 2°50.761 232.9 3 228 10.8
2007-05-22 08:44:08 51°14.612 2°50.755 233.7 3.1 232 10.8
2007-05-22 08:44:13 51°14.609 2°50.749 235.5 3.3 235 10.7
2007-05-22 08:44:18 51°14.606 2°50.743 237.4 3.4 235 10.7
2007-05-22 08:44:23 51°14.604 2°50.737 239.3 3.5 236 10.6
2007-05-22 08:44:28 51°14.601 2°50.73 241.3 3.6 239 10.7
2007-05-22 08:44:33 51°14.598 2°50.723 243.2 3.7 239 10.7
2007-05-22 08:44:38 51°14.596 2°50.716 245.2 3.6 240 10.7
2007-05-22 08:44:43 51°14.593 2°50.709 246.7 3.6 241 10.8
2007-05-22 08:44:48 51°14.591 2°50.702 248.1 3.5 242 10.8
2007-05-22 08:44:53 51°14.589 2°50.696 248.7 3.4 242 10.8
2007-05-22 08:44:58 51°14.587 2°50.689 249.5 3.4 244 10.8
2007-05-22 08:45:03 51°14.585 2°50.682 250.4 3.3 242 10.8
2007-05-22 08:45:08 51°14.583 2°50.676 251.1 3.2 245 10.7
2007-05-22 08:45:13 51°14.581 2°50.67 251.8 3.2 245 10.8
2007-05-22 08:45:18 51°14.579 2°50.664 252.5 3.1 244 10.9
2007-05-22 08:45:23 51°14.577 2°50.657 253.1 3.1 244 10.8
2007-05-22 08:45:28 51°14.576 2°50.651 253.6 3 245 10.7
2007-05-22 08:45:33 51°14.574 2°50.645 254 3 245 10.7
2007-05-22 08:45:38 51°14.572 2°50.64 254.4 2.9 245 10.8
2007-05-22 08:45:43 51°14.57 2°50.634 254.8 2.9 245 10.8
2007-05-22 08:45:48 51°14.569 2°50.628 255.4 2.8 244 10.8
2007-05-22 08:45:53 51°14.567 2°50.622 256.1 2.8 246 10.8
2007-05-22 08:45:58 51°14.565 2°50.617 256.4 2.8 244 10.8
2007-05-22 08:46:03 51°14.564 2°50.611 256.9 2.7 246 10.8
2007-05-22 08:46:08 51°14.562 2°50.606 257.4 2.7 245 10.8
2007-05-22 08:46:13 51°14.561 2°50.601 257.5 2.6 247 10.8
2007-05-22 08:46:18 51°14.559 2°50.595 257.8 2.6 245 10.8
2007-05-22 08:46:23 51°14.558 2°50.59 258 2.6 245 10.8
2007-05-22 08:46:28 51°14.556 2°50.585 258.4 2.7 245 10.7
2007-05-22 08:46:33 51°14.554 2°50.578 258.9 3.1 247 10.7
2007-05-22 08:46:38 51°14.553 2°50.571 259.4 3.5 248 10.9
2007-05-22 08:46:43 51°14.551 2°50.563 260.3 3.9 252 10.8
2007-05-22 08:46:48 51°14.549 2°50.555 261.2 4 253 10.7
2007-05-22 08:46:53 51°14.548 2°50.546 261.8 4.3 253 10.7
2007-05-22 08:46:58 51°14.547 2°50.536 263.6 4.4 259 10.6
2007-05-22 08:47:03 51°14.546 2°50.526 268 4.5 264 10.8
2007-05-22 08:47:08 51°14.546 2°50.517 273.8 4.3 269 10.8
2007-05-22 08:47:13 51°14.546 2°50.508 279.5 4.1 272 10.7
2007-05-22 08:47:18 51°14.546 2°50.499 283.9 4 272 10.7
2007-05-22 08:47:23 51°14.547 2°50.49 289 3.7 276 10.8
2007-05-22 08:47:28 51°14.547 2°50.482 292.7 3.7 275 10.9
2007-05-22 08:47:33 51°14.548 2°50.475 295.8 3.5 278 10.9
2007-05-22 08:47:38 51°14.549 2°50.467 298.6 3.5 279 10.9
2007-05-22 08:47:43 51°14.55 2°50.46 300.8 3.5 283 10.9
2007-05-22 08:47:48 51°14.551 2°50.452 303.6 3.6 286 10.9
2007-05-22 08:47:53 51°14.553 2°50.444 308 3.6 290 11
2007-05-22 08:47:58 51°14.555 2°50.437 311.3 3.7 293 11
2007-05-22 08:48:03 51°14.557 2°50.43 315.2 3.7 296 11
2007-05-22 08:48:08 51°14.56 2°50.422 318.4 3.7 299 11
2007-05-22 08:48:13 51°14.563 2°50.415 321.4 3.8 303 11
2007-05-22 08:48:18 51°14.566 2°50.409 325 3.7 306 10.9
2007-05-22 08:48:23 51°14.569 2°50.403 328.7 3.7 311 11.1
2007-05-22 08:48:28 51°14.572 2°50.397 332 3.7 314 11.1
2007-05-22 08:48:33 51°14.576 2°50.391 336.9 3.7 319 11.1
2007-05-22 08:48:38 51°14.58 2°50.386 341.1 3.7 323 11.1
2007-05-22 08:48:43 51°14.584 2°50.382 345.1 3.5 328 11.1
2007-05-22 08:48:48 51°14.589 2°50.378 349.5 3.6 332 11.1
2007-05-22 08:48:53 51°14.594 2°50.375 353 3.7 338 11.1
2007-05-22 08:48:58 51°14.598 2°50.373 358.7 3.7 344 11.1
2007-05-22 08:49:03 51°14.603 2°50.372 3.8 3.6 350 11.2
2007-05-22 08:49:08 51°14.608 2°50.371 7.8 3.7 356 11.3
2007-05-22 08:49:13 51°14.614 2°50.371 13.9 3.7 3 11.3
2007-05-22 08:49:18 51°14.619 2°50.373 18 3.6 10 11.3
2007-05-22 08:49:23 51°14.623 2°50.375 24.1 3.5 16 11.4
2007-05-22 08:49:28 51°14.628 2°50.378 29.4 3.4 22 11.3
2007-05-22 08:49:33 51°14.632 2°50.381 33.3 3.2 28 11.3
2007-05-22 08:49:38 51°14.635 2°50.385 37.8 3.1 32 11.4
2007-05-22 08:49:43 51°14.639 2°50.389 43.5 3 40 11.3
2007-05-22 08:49:48 51°14.642 2°50.394 47.2 3 46 11.4
2007-05-22 08:49:53 51°14.644 2°50.399 52.9 2.9 52 11.4
2007-05-22 08:49:58 51°14.646 2°50.404 56.7 2.8 58 11.4
2007-05-22 08:50:03 51°14.648 2°50.41 62.4 2.7 68 11.4
2007-05-22 08:50:08 51°14.649 2°50.415 67.8 2.7 74 11.3
2007-05-22 08:50:13 51°14.649 2°50.421 73.9 2.6 84 11.3
2007-05-22 08:50:18 51°14.649 2°50.427 78.8 2.7 94 11.3
2007-05-22 08:50:23 51°14.648 2°50.432 85.7 2.6 101 11.3
2007-05-22 08:50:28 51°14.647 2°50.438 92 2.6 107 11.3
2007-05-22 08:50:33 51°14.645 2°50.443 96.6 2.7 119 11.2
2007-05-22 08:50:38 51°14.643 2°50.448 102.5 2.7 125 11.3
2007-05-22 08:50:43 51°14.64 2°50.453 109.7 2.8 129 11.3
2007-05-22 08:50:48 51°14.637 2°50.457 113.8 2.9 138 11.3
2007-05-22 08:50:53 51°14.634 2°50.461 120.7 2.9 145 11.2
2007-05-22 08:50:58 51°14.63 2°50.464 125.5 3 150 11.3
2007-05-22 08:51:03 51°14.626 2°50.467 130.9 3.2 156 11.3
2007-05-22 08:51:08 51°14.622 2°50.469 136.4 3.2 161 11.3
2007-05-22 08:51:13 51°14.618 2°50.471 142.2 3.3 167 11.2
2007-05-22 08:51:18 51°14.613 2°50.472 149 3.5 172 11.2
2007-05-22 08:51:23 51°14.608 2°50.473 154.5 3.6 177 11.2
2007-05-22 08:51:28 51°14.603 2°50.472 159 3.6 181 11.2
2007-05-22 08:51:33 51°14.598 2°50.471 165.7 3.7 186 11.1
2007-05-22 08:51:38 51°14.592 2°50.47 170.4 3.9 192 11.1
2007-05-22 08:51:43 51°14.587 2°50.468 175.9 4 193 11
2007-05-22 08:51:48 51°14.582 2°50.466 181.2 4.1 195 11
2007-05-22 08:51:53 51°14.576 2°50.463 183.8 4.2 198 11
2007-05-22 08:51:58 51°14.57 2°50.46 187 4.4 199 11
2007-05-22 08:52:03 51°14.565 2°50.456 189.5 4.4 202 10.9
2007-05-22 08:52:08 51°14.559 2°50.452 192 4.4 203 10.9
2007-05-22 08:52:13 51°14.554 2°50.448 194.9 4.5 204 10.9
2007-05-22 08:52:18 51°14.548 2°50.443 196.9 4.6 207 10.9
2007-05-22 08:52:23 51°14.543 2°50.438 199.3 4.6 209 10.8
2007-05-22 08:52:28 51°14.537 2°50.433 202.1 4.6 211 10.8
2007-05-22 08:52:33 51°14.532 2°50.427 203.7 4.7 212 10.7
2007-05-22 08:52:38 51°14.526 2°50.422 206.1 4.7 214 10.7
2007-05-22 08:52:43 51°14.521 2°50.416 208.4 4.7 214 10.7
2007-05-22 08:52:48 51°14.515 2°50.409 210.9 4.8 217 10.8
2007-05-22 08:52:53 51°14.51 2°50.403 213.1 4.8 219 10.6
2007-05-22 08:52:58 51°14.505 2°50.396 215 4.8 219 10.6
2007-05-22 08:53:03 51°14.5 2°50.389 217 4.9 221 10.7
2007-05-22 08:53:08 51°14.495 2°50.381 219.2 4.9 224 10.6
2007-05-22 08:53:13 51°14.49 2°50.374 221.4 4.8 226 10.5
2007-05-22 08:53:18 51°14.486 2°50.366 224.2 4.8 226 10.5
2007-05-22 08:53:23 51°14.481 2°50.358 225.8 4.8 228 10.4
2007-05-22 08:53:28 51°14.477 2°50.35 228.4 4.8 230 10.7
2007-05-22 08:53:33 51°14.473 2°50.342 231 4.8 233 10.6
2007-05-22 08:53:38 51°14.469 2°50.334 232.9 4.7 232 10.4
2007-05-22 08:53:43 51°14.465 2°50.326 233.2 4.7 232 10.4
2007-05-22 08:53:48 51°14.461 2°50.318 233 4.7 231 10.4
2007-05-22 08:53:53 51°14.457 2°50.31 232.4 4.6 231 10.5
2007-05-22 08:53:58 51°14.453 2°50.302 231.3 4.6 228 10.4
2007-05-22 08:54:03 51°14.449 2°50.295 228.8 4.6 228 10.5
2007-05-22 08:54:08 51°14.444 2°50.288 226.1 4.6 224 10.5
2007-05-22 08:54:13 51°14.439 2°50.281 223.4 4.6 225 10.5